Terminal Aerodrome Forecast
Issued by NWS

Home | Current Version | Previous Version | Text Only | Print | Product List | Glossary On
Versions: 1 2 3 4 5 6 7 8 9 10 11 12 13
000
FTUS43 KIWX 260500
TAFSBN
TAF
KSBN 260525Z 2606/2706 18011KT P6SM BKN180 WS020/23040KT
     FM261400 20013KT P6SM BKN180
     FM270300 19008KT P6SM BKN025=

USA.gov is the U.S. government's official web portal to all federal, state and local government web resources and services.